createdAt,value
2019-06-15T00:02:01.803Z,19.00
2019-06-15T00:04:32.291Z,18.90
2019-06-15T00:07:02.639Z,19.00
2019-06-15T00:09:33.002Z,19.00
2019-06-15T00:12:03.438Z,19.00
2019-06-15T00:14:33.927Z,19.00
2019-06-15T00:17:04.387Z,18.90
2019-06-15T00:19:34.831Z,18.90
2019-06-15T00:22:05.186Z,18.90
2019-06-15T00:24:35.781Z,18.80
2019-06-15T00:27:06.219Z,18.80
2019-06-15T00:29:36.587Z,18.70
2019-06-15T00:32:06.950Z,18.70
2019-06-15T00:34:37.412Z,18.70
2019-06-15T00:37:07.826Z,18.70
2019-06-15T00:39:38.194Z,18.60
2019-06-15T00:42:08.630Z,18.60
2019-06-15T00:44:39.036Z,18.60
2019-06-15T00:47:09.514Z,18.50
2019-06-15T00:49:39.980Z,18.40
2019-06-15T00:52:10.343Z,18.30
2019-06-15T00:54:49.921Z,18.30
2019-06-15T00:57:12.822Z,18.30
2019-06-15T00:59:43.203Z,18.30
2019-06-15T01:02:13.548Z,18.30
2019-06-15T01:04:43.899Z,18.30
2019-06-15T01:07:14.278Z,18.30
2019-06-15T01:09:44.566Z,18.40
2019-06-15T01:12:15.015Z,18.30
2019-06-15T01:14:45.379Z,18.30
2019-06-15T01:17:15.759Z,18.30
2019-06-15T01:19:46.021Z,18.20
2019-06-15T01:22:16.379Z,18.20
2019-06-15T01:24:46.723Z,18.30
2019-06-15T01:27:17.207Z,18.20
2019-06-15T01:29:47.579Z,18.20
2019-06-15T01:32:17.882Z,18.30
2019-06-15T01:34:48.339Z,18.30
2019-06-15T01:37:18.707Z,18.30
2019-06-15T01:39:49.070Z,18.20
2019-06-15T01:42:19.531Z,18.10
2019-06-15T01:44:49.898Z,18.00
2019-06-15T01:47:20.277Z,18.00
2019-06-15T01:49:50.660Z,17.90
2019-06-15T01:52:21.031Z,17.80
2019-06-15T01:54:51.372Z,17.80
2019-06-15T01:57:21.745Z,17.80
2019-06-15T01:59:52.187Z,17.80
2019-06-15T02:02:22.655Z,17.80
2019-06-15T02:04:53.011Z,17.80
2019-06-15T02:07:23.466Z,17.80
2019-06-15T02:09:53.766Z,17.80
2019-06-15T02:12:24.578Z,17.80
2019-06-15T02:14:54.945Z,17.80
2019-06-15T02:17:25.408Z,17.80
2019-06-15T02:19:55.814Z,17.90
2019-06-15T02:22:26.260Z,17.90
2019-06-15T02:24:56.618Z,17.80
2019-06-15T02:27:26.967Z,17.80
2019-06-15T02:29:57.448Z,17.80
2019-06-15T02:32:27.808Z,17.80
2019-06-15T02:34:58.258Z,17.80
2019-06-15T02:37:28.606Z,17.80
2019-06-15T02:39:59.015Z,17.80
2019-06-15T02:42:29.492Z,17.90
2019-06-15T02:44:59.840Z,18.00
2019-06-15T02:47:30.301Z,17.90
2019-06-15T02:50:00.695Z,17.90
2019-06-15T02:52:31.019Z,17.80
2019-06-15T02:55:01.301Z,17.80
2019-06-15T02:57:31.644Z,17.70
2019-06-15T03:00:01.940Z,17.70
2019-06-15T03:02:32.353Z,17.60
2019-06-15T03:05:02.771Z,17.60
2019-06-15T03:07:33.115Z,17.60
2019-06-15T03:10:03.598Z,17.60
2019-06-15T03:12:33.901Z,17.60
2019-06-15T03:15:04.760Z,17.60
2019-06-15T03:17:35.095Z,17.60
2019-06-15T03:20:05.677Z,17.70
2019-06-15T03:22:36.032Z,17.70
2019-06-15T03:25:07.166Z,17.70
2019-06-15T03:27:37.630Z,17.80
2019-06-15T03:30:09.227Z,17.80
2019-06-15T03:32:39.611Z,17.80
2019-06-15T03:35:10.475Z,17.70
2019-06-15T03:37:40.822Z,17.80
2019-06-15T03:40:11.783Z,17.80
2019-06-15T03:42:42.207Z,17.80
2019-06-15T03:45:12.696Z,17.90
2019-06-15T03:47:43.046Z,18.00
2019-06-15T03:50:14.531Z,18.00
2019-06-15T03:52:44.983Z,18.20
2019-06-15T03:55:16.109Z,18.20
2019-06-15T03:57:46.447Z,18.30
2019-06-15T04:00:48.518Z,18.30
2019-06-15T04:03:18.908Z,18.30
2019-06-15T04:05:49.351Z,18.30
2019-06-15T04:08:19.799Z,18.40
2019-06-15T04:10:50.163Z,18.50
2019-06-15T04:13:20.783Z,18.60
2019-06-15T04:15:51.143Z,18.80
2019-06-15T04:18:21.584Z,18.90
2019-06-15T04:20:52.045Z,19.00
2019-06-15T04:23:22.406Z,19.10
2019-06-15T04:25:52.847Z,19.10
2019-06-15T04:28:23.202Z,19.20
2019-06-15T04:30:53.560Z,19.20
2019-06-15T04:33:24.039Z,19.30
2019-06-15T04:35:54.399Z,19.40
2019-06-15T04:38:24.746Z,19.50
2019-06-15T04:40:55.197Z,19.60
2019-06-15T04:43:25.671Z,19.70
2019-06-15T04:45:56.019Z,19.80
2019-06-15T04:48:26.400Z,19.90
2019-06-15T04:50:56.890Z,20.00
2019-06-15T04:53:27.239Z,20.10
2019-06-15T04:55:57.712Z,20.20
2019-06-15T04:58:28.095Z,20.20
2019-06-15T05:00:58.540Z,20.30
2019-06-15T05:03:28.887Z,20.20
2019-06-15T05:05:59.259Z,20.30
2019-06-15T05:08:29.715Z,20.30
2019-06-15T05:11:02.925Z,20.30
2019-06-15T05:13:32.055Z,20.50
2019-06-15T05:16:02.425Z,20.60
2019-06-15T05:18:32.871Z,20.70
2019-06-15T05:21:03.258Z,20.80
2019-06-15T05:23:33.526Z,20.90
2019-06-15T05:26:03.819Z,21.00
2019-06-15T05:28:34.284Z,21.00
2019-06-15T05:31:04.860Z,21.00
2019-06-15T05:33:35.316Z,21.00
2019-06-15T05:36:05.697Z,21.10
2019-06-15T05:38:36.062Z,21.10
2019-06-15T05:41:06.419Z,21.10
2019-06-15T05:43:36.787Z,21.10
2019-06-15T05:46:07.264Z,21.10
2019-06-15T05:48:37.627Z,21.20
2019-06-15T05:51:08.058Z,21.20
2019-06-15T05:53:38.484Z,21.40
2019-06-15T05:56:08.791Z,21.40
2019-06-15T05:58:39.271Z,21.50
2019-06-15T06:01:09.642Z,21.60
2019-06-15T06:03:40.135Z,21.80
2019-06-15T06:06:10.488Z,22.00
2019-06-15T06:08:41.855Z,22.40
2019-06-15T06:11:12.227Z,22.80
2019-06-15T06:13:42.675Z,23.20
2019-06-15T06:16:13.127Z,23.70
2019-06-15T06:18:43.488Z,24.30
2019-06-15T06:21:13.944Z,24.80
2019-06-15T06:23:44.736Z,25.40
2019-06-15T06:26:15.181Z,26.10
2019-06-15T06:28:56.742Z,26.60
2019-06-15T06:31:17.716Z,26.80
2019-06-15T06:33:48.054Z,26.70
2019-06-15T06:36:18.511Z,26.30
2019-06-15T06:38:48.857Z,26.10
2019-06-15T06:41:19.312Z,25.70
2019-06-15T06:43:49.699Z,25.40
2019-06-15T06:46:20.190Z,25.10
2019-06-15T06:48:50.580Z,24.90
2019-06-15T06:51:20.939Z,24.60
2019-06-15T06:53:51.396Z,24.50
2019-06-15T06:56:21.855Z,24.30
2019-06-15T06:58:52.219Z,24.20
2019-06-15T07:01:22.569Z,24.20
2019-06-15T07:03:52.919Z,24.20
2019-06-15T07:06:23.283Z,24.30
2019-06-15T07:08:53.743Z,24.40
2019-06-15T07:11:24.260Z,24.60
2019-06-15T07:13:54.691Z,24.80
2019-06-15T07:16:25.099Z,25.20
2019-06-15T07:18:55.459Z,25.70
2019-06-15T07:21:25.746Z,26.20
2019-06-15T07:23:56.084Z,26.60
2019-06-15T07:26:26.575Z,27.20
2019-06-15T07:28:56.919Z,27.60
2019-06-15T07:31:27.278Z,27.70
2019-06-15T07:33:57.730Z,27.90
2019-06-15T07:36:28.031Z,28.10
2019-06-15T07:38:58.419Z,27.90
2019-06-15T07:41:28.801Z,27.90
2019-06-15T07:43:59.333Z,27.90
2019-06-15T07:46:29.754Z,28.20
2019-06-15T07:49:00.671Z,28.60
2019-06-15T07:51:30.962Z,28.60
2019-06-15T07:54:01.451Z,28.40
2019-06-15T07:56:31.740Z,28.30
2019-06-15T07:59:02.175Z,28.20
2019-06-15T08:01:32.521Z,28.20
2019-06-15T08:04:05.295Z,28.40
2019-06-15T08:06:35.799Z,28.50
2019-06-15T08:09:07.511Z,29.20
2019-06-15T08:11:37.883Z,29.60
2019-06-15T08:14:08.393Z,30.00
2019-06-15T08:16:38.779Z,30.40
2019-06-15T08:19:09.143Z,30.80
2019-06-15T08:21:39.798Z,31.00
2019-06-15T08:24:10.165Z,31.20
2019-06-15T08:26:40.603Z,31.40
2019-06-15T08:29:14.260Z,31.40
2019-06-15T08:31:44.699Z,31.40
2019-06-15T08:34:15.256Z,31.10
2019-06-15T08:36:45.617Z,31.30
2019-06-15T08:39:15.987Z,31.20
2019-06-15T08:41:46.295Z,31.30
2019-06-15T08:44:16.752Z,31.40
2019-06-15T08:46:47.144Z,31.10
2019-06-15T08:49:17.630Z,31.00
2019-06-15T08:51:48.118Z,31.00
2019-06-15T08:54:19.860Z,30.90
2019-06-15T08:56:50.305Z,30.70
2019-06-15T08:59:20.674Z,30.30
2019-06-15T09:01:50.976Z,30.30
2019-06-15T09:04:21.552Z,30.30
2019-06-15T09:06:52.010Z,30.40
2019-06-15T09:09:22.707Z,30.40
2019-06-15T09:11:53.196Z,30.60
2019-06-15T09:14:24.571Z,30.70
2019-06-15T09:16:55.312Z,30.50
2019-06-15T09:19:26.146Z,30.30
2019-06-15T09:21:56.511Z,30.20
2019-06-15T09:24:26.970Z,29.90
2019-06-15T09:26:57.327Z,29.60
2019-06-15T09:29:29.131Z,29.30
2019-06-15T09:31:59.658Z,29.20
2019-06-15T09:34:41.766Z,29.00
2019-06-15T09:37:13.243Z,28.80
2019-06-15T09:39:47.258Z,28.60
2019-06-15T09:42:18.048Z,28.50
2019-06-15T09:44:48.634Z,28.60
2019-06-15T09:47:19.192Z,28.50
2019-06-15T09:49:50.335Z,28.70
2019-06-15T09:52:20.730Z,28.80
2019-06-15T09:54:52.131Z,28.70
2019-06-15T09:57:22.963Z,28.60
2019-06-15T09:59:53.515Z,28.60
2019-06-15T10:02:23.918Z,28.60
2019-06-15T10:04:54.483Z,28.50
2019-06-15T10:07:24.840Z,28.50
2019-06-15T10:09:55.762Z,28.50
2019-06-15T10:12:26.051Z,28.70
2019-06-15T10:14:56.403Z,28.90
2019-06-15T10:17:26.823Z,29.10
2019-06-15T10:19:57.167Z,29.20
2019-06-15T10:22:27.611Z,29.30
2019-06-15T10:24:57.971Z,29.30
2019-06-15T10:27:28.349Z,29.40
2019-06-15T10:29:58.805Z,29.40
2019-06-15T10:32:29.347Z,29.40
2019-06-15T10:34:59.860Z,29.50
2019-06-15T10:37:30.202Z,29.60
2019-06-15T10:40:00.627Z,29.90
2019-06-15T10:42:31.220Z,30.00
2019-06-15T10:45:01.678Z,30.30
2019-06-15T10:47:32.165Z,30.30
2019-06-15T10:50:02.515Z,30.30
2019-06-15T10:52:32.978Z,30.20
2019-06-15T10:55:03.338Z,30.00
2019-06-15T10:57:33.742Z,29.90
2019-06-15T11:00:05.052Z,29.80
2019-06-15T11:02:35.520Z,29.70
2019-06-15T11:05:06.132Z,29.50
2019-06-15T11:07:36.516Z,29.40
2019-06-15T11:10:08.471Z,29.30
2019-06-15T11:12:46.466Z,29.30
2019-06-15T11:15:12.413Z,29.20
2019-06-15T11:17:42.884Z,28.80
2019-06-15T11:20:13.657Z,28.60
2019-06-15T11:22:44.015Z,28.50
2019-06-15T11:25:14.579Z,28.40
2019-06-15T11:27:44.902Z,28.30
2019-06-15T11:30:15.561Z,28.30
2019-06-15T11:32:45.926Z,28.20
2019-06-15T11:35:16.599Z,28.20
2019-06-15T11:37:46.940Z,28.10
2019-06-15T11:40:17.518Z,28.00
2019-06-15T11:42:49.820Z,28.10
2019-06-15T11:45:20.322Z,28.20
2019-06-15T11:47:50.875Z,28.30
2019-06-15T11:50:21.440Z,28.60
2019-06-15T11:52:51.814Z,28.90
2019-06-15T11:55:22.218Z,29.10
2019-06-15T11:57:53.185Z,29.20
2019-06-15T12:00:31.078Z,29.20
2019-06-15T12:02:58.711Z,29.30
2019-06-15T12:05:29.165Z,29.30
2019-06-15T12:07:59.612Z,29.20
2019-06-15T12:10:29.978Z,29.10
2019-06-15T12:13:00.448Z,29.00
2019-06-15T12:15:30.906Z,28.90
2019-06-15T12:18:01.299Z,28.80
2019-06-15T12:20:31.719Z,28.80
2019-06-15T12:23:02.028Z,28.70
2019-06-15T12:25:32.500Z,28.50
2019-06-15T12:28:02.913Z,28.50
2019-06-15T12:30:46.089Z,28.40
2019-06-15T12:33:09.624Z,28.30
2019-06-15T12:35:40.074Z,28.20
2019-06-15T12:38:10.528Z,28.20
2019-06-15T12:40:40.999Z,28.10
2019-06-15T12:43:11.361Z,28.10
2019-06-15T12:45:42.339Z,28.00
2019-06-15T12:48:12.719Z,28.00
2019-06-15T12:50:43.223Z,28.20
2019-06-15T12:53:13.609Z,28.30
2019-06-15T12:55:44.116Z,28.60
2019-06-15T12:58:14.566Z,28.90
2019-06-15T13:00:44.874Z,29.10
2019-06-15T13:03:15.251Z,29.30
2019-06-15T13:05:45.623Z,29.40
2019-06-15T13:08:16.096Z,29.40
2019-06-15T13:10:46.547Z,29.40
2019-06-15T13:13:17.010Z,29.50
2019-06-15T13:15:47.356Z,29.50
2019-06-15T13:18:17.731Z,29.40
2019-06-15T13:20:48.374Z,29.40
2019-06-15T13:23:18.719Z,29.40
2019-06-15T13:25:49.179Z,29.40
2019-06-15T13:28:19.455Z,29.40
2019-06-15T13:30:50.024Z,29.40
2019-06-15T13:33:20.366Z,29.20
2019-06-15T13:35:50.757Z,29.20
2019-06-15T13:38:21.253Z,29.20
2019-06-15T13:40:52.052Z,29.20
2019-06-15T13:43:22.421Z,29.20
2019-06-15T13:45:52.876Z,29.20
2019-06-15T13:48:23.234Z,29.20
2019-06-15T13:50:53.640Z,29.30
2019-06-15T13:53:24.039Z,29.30
2019-06-15T13:55:54.496Z,29.30
2019-06-15T13:58:24.846Z,29.30
2019-06-15T14:00:55.235Z,29.30
2019-06-15T14:03:25.838Z,29.30
2019-06-15T14:05:56.295Z,29.20
2019-06-15T14:08:26.839Z,29.20
2019-06-15T14:10:57.238Z,29.20
2019-06-15T14:13:27.630Z,29.20
2019-06-15T14:15:58.123Z,29.20
2019-06-15T14:18:28.572Z,29.20
2019-06-15T14:20:58.916Z,29.20
2019-06-15T14:23:29.378Z,29.20
2019-06-15T14:25:59.726Z,29.10
2019-06-15T14:28:30.087Z,29.10
2019-06-15T14:31:00.467Z,29.00
2019-06-15T14:33:30.855Z,29.00
2019-06-15T14:36:01.312Z,28.90
2019-06-15T14:38:31.682Z,28.80
2019-06-15T14:41:02.033Z,28.80
2019-06-15T14:43:32.467Z,28.70
2019-06-15T14:46:02.876Z,28.80
2019-06-15T14:48:33.333Z,28.80
2019-06-15T14:51:03.763Z,28.90
2019-06-15T14:53:36.679Z,29.00
2019-06-15T14:56:06.807Z,29.10
2019-06-15T14:58:37.401Z,29.10
2019-06-15T15:01:07.684Z,29.00
2019-06-15T15:03:38.082Z,29.00
2019-06-15T15:06:08.433Z,28.90
2019-06-15T15:08:38.895Z,28.90
2019-06-15T15:11:09.244Z,28.90
2019-06-15T15:13:39.661Z,28.80
2019-06-15T15:16:10.135Z,28.70
2019-06-15T15:18:40.486Z,28.50
2019-06-15T15:21:11.026Z,28.40
2019-06-15T15:23:41.315Z,28.50
2019-06-15T15:26:11.811Z,28.50
2019-06-15T15:28:42.213Z,28.50
2019-06-15T15:31:12.579Z,28.70
2019-06-15T15:33:43.132Z,28.70
2019-06-15T15:36:13.781Z,28.70
2019-06-15T15:38:46.640Z,28.80
2019-06-15T15:41:17.129Z,28.80
2019-06-15T15:43:47.684Z,28.80
2019-06-15T15:46:18.094Z,28.80
2019-06-15T15:48:48.543Z,28.70
2019-06-15T15:51:18.896Z,28.80
2019-06-15T15:53:49.341Z,28.80
2019-06-15T15:56:19.731Z,28.80
2019-06-15T15:58:50.226Z,28.80
2019-06-15T16:01:20.586Z,28.80
2019-06-15T16:03:50.985Z,28.70
2019-06-15T16:06:21.435Z,28.60
2019-06-15T16:08:51.943Z,28.50
2019-06-15T16:11:22.303Z,28.30
2019-06-15T16:13:52.771Z,28.30
2019-06-15T16:16:23.155Z,28.20
2019-06-15T16:18:56.004Z,28.30
2019-06-15T16:21:26.142Z,28.20
2019-06-15T16:23:58.390Z,28.30
2019-06-15T16:26:28.550Z,28.20
2019-06-15T16:28:58.890Z,28.20
2019-06-15T16:31:29.491Z,28.20
2019-06-15T16:33:59.987Z,28.20
2019-06-15T16:36:30.487Z,28.20
2019-06-15T16:39:00.948Z,28.20
2019-06-15T16:41:31.401Z,28.20
2019-06-15T16:44:01.987Z,28.20
2019-06-15T16:46:32.342Z,28.20
2019-06-15T16:49:02.733Z,28.20
2019-06-15T16:51:33.083Z,28.20
2019-06-15T16:54:06.130Z,28.20
2019-06-15T16:56:36.248Z,28.20
2019-06-15T16:59:06.899Z,28.20
2019-06-15T17:01:37.382Z,28.10
2019-06-15T17:04:08.059Z,28.10
2019-06-15T17:06:40.723Z,28.10
2019-06-15T17:09:10.994Z,28.00
2019-06-15T17:11:41.507Z,28.00
2019-06-15T17:14:12.081Z,28.00
2019-06-15T17:16:42.547Z,28.00
2019-06-15T17:19:12.839Z,27.90
2019-06-15T17:21:43.212Z,27.90
2019-06-15T17:24:13.672Z,27.80
2019-06-15T17:26:46.679Z,27.80
2019-06-15T17:29:16.349Z,27.80
2019-06-15T17:31:46.976Z,27.70
2019-06-15T17:34:17.643Z,27.60
2019-06-15T17:36:48.023Z,27.60
2019-06-15T17:39:18.424Z,27.60
2019-06-15T17:41:48.863Z,27.50
2019-06-15T17:44:19.286Z,27.40
2019-06-15T17:46:49.645Z,27.40
2019-06-15T17:49:20.143Z,27.30
2019-06-15T17:51:50.499Z,27.20
2019-06-15T17:54:21.070Z,27.10
2019-06-15T17:56:51.577Z,27.10
2019-06-15T17:59:22.630Z,27.00
2019-06-15T18:01:53.012Z,27.00
2019-06-15T18:04:23.487Z,26.80
2019-06-15T18:06:56.634Z,26.80
2019-06-15T18:09:26.050Z,26.60
2019-06-15T18:11:57.118Z,26.50
2019-06-15T18:14:27.599Z,26.30
2019-06-15T18:16:58.336Z,26.20
2019-06-15T18:19:29.016Z,26.00
2019-06-15T18:21:59.895Z,25.80
2019-06-15T18:24:30.248Z,25.60
2019-06-15T18:27:18.346Z,25.50
2019-06-15T18:29:48.755Z,25.40
2019-06-15T18:32:19.122Z,25.30
2019-06-15T18:34:49.555Z,25.10
2019-06-15T18:37:20.018Z,24.90
2019-06-15T18:39:50.491Z,24.80
2019-06-15T18:42:20.971Z,24.70
2019-06-15T18:44:51.348Z,24.60
2019-06-15T18:47:21.696Z,24.50
2019-06-15T18:49:52.067Z,24.50
2019-06-15T18:52:22.419Z,24.30
2019-06-15T18:54:52.799Z,24.20
2019-06-15T18:57:23.280Z,24.20
2019-06-15T18:59:56.157Z,24.10
2019-06-15T19:02:26.705Z,24.10
2019-06-15T19:04:57.311Z,24.00
2019-06-15T19:07:27.682Z,23.90
2019-06-15T19:09:58.095Z,23.90
2019-06-15T19:12:28.579Z,23.80
2019-06-15T19:14:58.946Z,23.70
2019-06-15T19:17:29.419Z,23.60
2019-06-15T19:19:59.771Z,23.50
2019-06-15T19:22:30.167Z,23.40
2019-06-15T19:25:00.570Z,23.40
2019-06-15T19:27:30.928Z,23.30
2019-06-15T19:30:01.446Z,23.30
2019-06-15T19:32:32.014Z,23.20
2019-06-15T19:35:02.490Z,23.20
2019-06-15T19:37:34.005Z,23.20
2019-06-15T19:40:07.300Z,23.20
2019-06-15T19:42:37.391Z,23.20
2019-06-15T19:45:10.529Z,23.10
2019-06-15T19:47:40.046Z,23.00
2019-06-15T19:50:11.189Z,23.00
2019-06-15T19:52:41.551Z,23.00
2019-06-15T19:55:11.901Z,23.00
2019-06-15T19:57:42.387Z,22.90
2019-06-15T20:00:13.032Z,22.80
2019-06-15T20:02:43.402Z,22.70
2019-06-15T20:05:13.955Z,22.60
2019-06-15T20:07:46.531Z,22.60
2019-06-15T20:10:16.407Z,22.50
2019-06-15T20:12:46.814Z,22.40
2019-06-15T20:15:17.193Z,22.40
2019-06-15T20:17:47.649Z,22.40
2019-06-15T20:20:18.034Z,22.30
2019-06-15T20:22:48.499Z,22.30
2019-06-15T20:25:18.787Z,22.30
2019-06-15T20:27:49.729Z,22.20
2019-06-15T20:30:20.455Z,22.10
2019-06-15T20:32:50.932Z,21.90
2019-06-15T20:35:21.592Z,21.80
2019-06-15T20:37:51.989Z,21.80
2019-06-15T20:40:22.376Z,21.70
2019-06-15T20:42:52.824Z,21.60
2019-06-15T20:45:23.290Z,21.50
2019-06-15T20:47:55.880Z,21.50
2019-06-15T20:50:28.520Z,21.40
2019-06-15T20:52:57.762Z,21.40
2019-06-15T20:55:28.131Z,21.30
2019-06-15T20:57:58.595Z,21.20
2019-06-15T21:00:28.883Z,21.20
2019-06-15T21:02:59.154Z,21.10
2019-06-15T21:05:37.202Z,21.00
2019-06-15T21:08:01.776Z,20.90
2019-06-15T21:10:32.108Z,20.90
2019-06-15T21:13:02.592Z,20.80
2019-06-15T21:15:36.864Z,20.80
2019-06-15T21:18:07.358Z,20.80
2019-06-15T21:20:37.834Z,20.70
2019-06-15T21:23:08.195Z,20.70
2019-06-15T21:25:38.676Z,20.70
2019-06-15T21:28:09.147Z,20.70
2019-06-15T21:30:39.482Z,20.70
2019-06-15T21:33:09.866Z,20.70
2019-06-15T21:35:49.125Z,20.60
2019-06-15T21:38:12.355Z,20.60
2019-06-15T21:40:42.759Z,20.50
2019-06-15T21:43:13.052Z,20.50
2019-06-15T21:45:46.094Z,20.40
2019-06-15T21:48:15.328Z,20.40
2019-06-15T21:50:47.206Z,20.30
2019-06-15T21:53:17.742Z,20.30
2019-06-15T21:55:48.211Z,20.20
2019-06-15T21:58:18.587Z,20.20
2019-06-15T22:01:10.171Z,20.20
2019-06-15T22:03:40.531Z,20.20
2019-06-15T22:06:10.988Z,20.10
2019-06-15T22:08:41.463Z,20.00
2019-06-15T22:11:11.828Z,20.00
2019-06-15T22:13:42.275Z,20.00
2019-06-15T22:16:13.963Z,19.90
2019-06-15T22:18:47.220Z,19.90
2019-06-15T22:21:16.724Z,19.90
2019-06-15T22:23:47.442Z,19.90
2019-06-15T22:26:17.899Z,19.80
2019-06-15T22:28:48.235Z,19.80
2019-06-15T22:31:18.550Z,19.80
2019-06-15T22:33:48.861Z,19.70
2019-06-15T22:36:25.163Z,19.70
2019-06-15T22:38:51.394Z,19.60
2019-06-15T22:41:21.746Z,19.70
2019-06-15T22:43:52.204Z,19.70
2019-06-15T22:46:22.643Z,19.70
2019-06-15T22:48:52.939Z,19.70
2019-06-15T22:51:23.391Z,19.70
2019-06-15T22:53:53.707Z,19.60
2019-06-15T22:56:26.208Z,19.60
2019-06-15T22:58:56.976Z,19.50
2019-06-15T23:01:27.447Z,19.50
2019-06-15T23:03:57.811Z,19.50
2019-06-15T23:06:36.918Z,19.40
2019-06-15T23:09:00.244Z,19.40
2019-06-15T23:11:30.707Z,19.40
2019-06-15T23:14:01.059Z,19.30
2019-06-15T23:16:31.477Z,19.30
2019-06-15T23:19:01.928Z,19.20
2019-06-15T23:21:32.400Z,19.20
2019-06-15T23:24:02.748Z,19.20
2019-06-15T23:26:33.151Z,19.10
2019-06-15T23:29:03.587Z,19.20
2019-06-15T23:31:36.707Z,19.10
2019-06-15T23:34:07.155Z,19.10
2019-06-15T23:36:52.841Z,19.10
2019-06-15T23:39:12.571Z,19.10
2019-06-15T23:41:42.839Z,19.00
2019-06-15T23:44:15.784Z,19.00
2019-06-15T23:46:46.962Z,19.10
2019-06-15T23:49:17.455Z,19.10
2019-06-15T23:51:47.816Z,19.10
2019-06-15T23:54:18.258Z,19.10
2019-06-15T23:56:48.544Z,19.00
2019-06-15T23:59:18.954Z,19.00
